createdAt,value
2019-05-09T00:02:15.796Z,9.76
2019-05-09T00:04:45.526Z,9.77
2019-05-09T00:07:15.297Z,9.65
2019-05-09T00:09:44.946Z,9.65
2019-05-09T00:12:14.923Z,9.58
2019-05-09T00:14:44.558Z,9.59
2019-05-09T00:17:14.315Z,9.55
2019-05-09T00:19:44.042Z,9.70
2019-05-09T00:22:13.929Z,9.77
2019-05-09T00:24:44.761Z,9.74
2019-05-09T00:27:14.796Z,9.81
2019-05-09T00:29:49.076Z,9.72
2019-05-09T00:32:26.362Z,9.73
2019-05-09T00:35:04.041Z,9.69
2019-05-09T00:37:53.499Z,9.65
2019-05-09T00:40:24.840Z,9.60
2019-05-09T00:42:55.460Z,9.58
2019-05-09T00:45:34.569Z,9.67
2019-05-09T00:48:04.677Z,9.60
2019-05-09T00:50:34.304Z,9.65
2019-05-09T00:53:04.069Z,9.72
2019-05-09T00:55:33.716Z,9.82
2019-05-09T00:58:04.195Z,9.91
2019-05-09T01:00:34.025Z,9.93
2019-05-09T01:03:03.756Z,9.87
2019-05-09T01:05:34.148Z,9.82
2019-05-09T01:08:04.997Z,9.80
2019-05-09T01:10:34.330Z,9.88
2019-05-09T01:13:04.257Z,9.85
2019-05-09T01:15:33.951Z,9.81
2019-05-09T01:18:04.602Z,9.71
2019-05-09T01:20:34.476Z,9.76
2019-05-09T01:23:04.139Z,9.90
2019-05-09T01:25:33.872Z,9.75
2019-05-09T01:28:03.546Z,9.78
2019-05-09T01:30:33.771Z,9.75
2019-05-09T01:33:24.168Z,9.76
2019-05-09T01:35:54.217Z,9.82
2019-05-09T01:38:23.955Z,9.87
2019-05-09T01:40:53.601Z,9.88
2019-05-09T01:43:24.371Z,9.88
2019-05-09T01:45:54.219Z,9.87
2019-05-09T01:48:23.933Z,9.91
2019-05-09T01:50:53.854Z,9.86
2019-05-09T01:53:25.179Z,10.01
2019-05-09T01:55:58.341Z,10.02
2019-05-09T01:58:30.910Z,10.03
2019-05-09T02:01:03.673Z,10.06
2019-05-09T02:03:33.814Z,9.99
2019-05-09T02:06:03.819Z,9.91
2019-05-09T02:08:34.458Z,9.90
2019-05-09T02:11:05.021Z,9.89
2019-05-09T02:13:34.835Z,9.87
2019-05-09T02:16:24.298Z,9.81
2019-05-09T02:18:55.613Z,9.80
2019-05-09T02:21:25.293Z,9.76
2019-05-09T02:23:55.002Z,9.71
2019-05-09T02:26:24.668Z,9.65
2019-05-09T02:28:54.175Z,9.61
2019-05-09T02:31:24.635Z,9.54
2019-05-09T02:33:54.588Z,9.49
2019-05-09T02:36:24.351Z,9.42
2019-05-09T02:38:54.057Z,9.45
2019-05-09T02:41:23.726Z,9.61
2019-05-09T02:43:53.450Z,9.68
2019-05-09T02:46:29.098Z,9.63
2019-05-09T02:48:59.445Z,9.62
2019-05-09T02:51:29.376Z,9.62
2019-05-09T02:53:59.226Z,9.62
2019-05-09T02:56:29.996Z,9.60
2019-05-09T02:59:09.555Z,9.65
2019-05-09T03:01:58.577Z,9.68
2019-05-09T03:04:28.502Z,9.73
2019-05-09T03:06:59.693Z,9.76
2019-05-09T03:09:29.931Z,9.78
2019-05-09T03:12:20.516Z,9.78
2019-05-09T03:14:30.942Z,9.74
2019-05-09T03:17:00.611Z,9.74
2019-05-09T03:19:30.321Z,9.75
2019-05-09T03:22:04.667Z,9.80
2019-05-09T03:24:34.385Z,9.86
2019-05-09T03:27:08.519Z,9.84
2019-05-09T03:29:39.995Z,9.83
2019-05-09T03:32:09.832Z,9.84
2019-05-09T03:34:39.459Z,9.88
2019-05-09T03:37:09.418Z,9.89
2019-05-09T03:39:39.182Z,9.82
2019-05-09T03:42:09.000Z,9.83
2019-05-09T03:44:39.003Z,9.77
2019-05-09T03:47:10.469Z,9.73
2019-05-09T03:49:40.759Z,9.63
2019-05-09T03:52:10.925Z,9.62
2019-05-09T03:54:40.930Z,9.60
2019-05-09T03:57:12.988Z,9.60
2019-05-09T03:59:43.145Z,9.59
2019-05-09T04:02:13.253Z,9.55
2019-05-09T04:04:43.614Z,9.58
2019-05-09T04:07:13.869Z,9.69
2019-05-09T04:09:44.133Z,9.68
2019-05-09T04:12:14.315Z,9.70
2019-05-09T04:14:44.600Z,9.69
2019-05-09T04:17:14.965Z,9.71
2019-05-09T04:19:47.704Z,9.67
2019-05-09T04:22:18.154Z,9.66
2019-05-09T04:24:49.419Z,9.72
2019-05-09T04:27:24.049Z,9.70
2019-05-09T04:29:54.188Z,9.71
2019-05-09T04:32:24.575Z,9.83
2019-05-09T04:34:53.670Z,9.80
2019-05-09T04:37:24.263Z,9.63
2019-05-09T04:40:01.581Z,9.72
2019-05-09T04:42:28.347Z,9.84
2019-05-09T04:45:09.725Z,9.84
2019-05-09T04:47:41.420Z,9.86
2019-05-09T04:50:09.593Z,9.91
2019-05-09T04:52:40.035Z,9.90
2019-05-09T04:55:11.205Z,9.95
2019-05-09T04:57:41.769Z,9.99
2019-05-09T05:00:13.636Z,10.00
2019-05-09T05:02:45.306Z,9.98
2019-05-09T05:05:17.942Z,10.01
2019-05-09T05:07:48.101Z,10.05
2019-05-09T05:10:18.558Z,10.07
2019-05-09T05:12:48.708Z,10.05
2019-05-09T05:15:20.548Z,10.00
2019-05-09T05:17:50.003Z,9.97
2019-05-09T05:20:21.769Z,9.99
2019-05-09T05:22:58.074Z,10.01
2019-05-09T05:25:28.154Z,10.13
2019-05-09T05:27:58.663Z,10.22
2019-05-09T05:30:28.800Z,10.27
2019-05-09T05:33:00.481Z,10.35
2019-05-09T05:35:32.398Z,10.43
2019-05-09T05:38:02.871Z,10.56
2019-05-09T05:40:34.025Z,10.60
2019-05-09T05:43:04.193Z,10.78
2019-05-09T05:45:37.509Z,11.02
2019-05-09T05:48:09.492Z,11.03
2019-05-09T05:50:39.766Z,11.19
2019-05-09T05:53:10.135Z,11.40
2019-05-09T05:55:40.492Z,11.51
2019-05-09T05:58:11.032Z,11.63
2019-05-09T06:00:41.236Z,11.60
2019-05-09T06:03:11.588Z,11.55
2019-05-09T06:05:41.742Z,11.52
2019-05-09T06:08:11.859Z,11.54
2019-05-09T06:10:42.241Z,11.32
2019-05-09T06:13:12.449Z,11.26
2019-05-09T06:15:43.047Z,11.24
2019-05-09T06:18:13.406Z,11.24
2019-05-09T06:20:45.685Z,11.15
2019-05-09T06:23:17.643Z,11.07
2019-05-09T06:25:48.439Z,11.04
2019-05-09T06:28:19.069Z,10.94
2019-05-09T06:30:49.452Z,11.01
2019-05-09T06:33:19.717Z,11.02
2019-05-09T06:35:49.922Z,11.03
2019-05-09T06:38:20.105Z,10.94
2019-05-09T06:40:50.424Z,10.95
2019-05-09T06:43:22.085Z,10.93
2019-05-09T06:46:01.159Z,10.98
2019-05-09T06:48:31.665Z,10.89
2019-05-09T06:51:01.783Z,10.93
2019-05-09T06:53:32.452Z,10.87
2019-05-09T06:56:02.749Z,10.91
2019-05-09T06:58:34.426Z,10.92
2019-05-09T07:01:23.842Z,10.98
2019-05-09T07:03:53.980Z,10.93
2019-05-09T07:06:34.651Z,10.86
2019-05-09T07:09:14.906Z,10.88
2019-05-09T07:11:48.422Z,10.94
2019-05-09T07:14:33.877Z,11.00
2019-05-09T07:17:02.811Z,11.00
2019-05-09T07:19:32.939Z,11.01
2019-05-09T07:22:09.310Z,11.12
2019-05-09T07:25:06.074Z,11.14
2019-05-09T07:27:31.052Z,11.21
2019-05-09T07:30:02.855Z,11.25
2019-05-09T07:32:38.929Z,11.19
2019-05-09T07:35:10.444Z,11.19
2019-05-09T07:37:40.401Z,11.19
2019-05-09T07:40:10.741Z,11.18
2019-05-09T07:42:40.815Z,11.18
2019-05-09T07:45:10.991Z,11.22
2019-05-09T07:47:40.878Z,11.32
2019-05-09T07:50:11.295Z,11.33
2019-05-09T07:52:41.674Z,11.39
2019-05-09T07:55:12.046Z,11.45
2019-05-09T07:57:46.913Z,11.54
2019-05-09T08:00:14.344Z,11.56
2019-05-09T08:02:44.665Z,11.46
2019-05-09T08:05:19.493Z,11.49
2019-05-09T08:07:49.944Z,11.52
2019-05-09T08:10:20.018Z,11.52
2019-05-09T08:12:50.012Z,11.56
2019-05-09T08:15:20.481Z,11.58
2019-05-09T08:17:52.125Z,11.48
2019-05-09T08:20:27.721Z,11.55
2019-05-09T08:23:02.191Z,11.49
2019-05-09T08:25:31.876Z,11.51
2019-05-09T08:28:02.239Z,11.46
2019-05-09T08:30:36.085Z,11.48
2019-05-09T08:33:03.580Z,11.47
2019-05-09T08:35:33.993Z,11.53
2019-05-09T08:38:04.288Z,11.55
2019-05-09T08:40:34.506Z,11.52
2019-05-09T08:43:04.812Z,11.63
2019-05-09T08:45:35.231Z,11.63
2019-05-09T08:48:05.577Z,11.51
2019-05-09T08:50:38.929Z,11.61
2019-05-09T08:53:09.648Z,11.66
2019-05-09T08:55:39.204Z,11.76
2019-05-09T08:58:09.547Z,11.71
2019-05-09T09:00:39.785Z,11.73
2019-05-09T09:03:10.190Z,11.66
2019-05-09T09:05:43.305Z,11.78
2019-05-09T09:08:12.311Z,11.77
2019-05-09T09:10:42.429Z,11.86
2019-05-09T09:13:12.656Z,11.89
2019-05-09T09:16:14.507Z,11.87
2019-05-09T09:18:14.780Z,11.91
2019-05-09T09:20:44.982Z,12.06
2019-05-09T09:23:17.878Z,12.14
2019-05-09T09:25:48.687Z,12.13
2019-05-09T09:28:18.376Z,12.30
2019-05-09T09:30:49.069Z,12.34
2019-05-09T09:33:19.639Z,12.36
2019-05-09T09:35:50.793Z,12.46
2019-05-09T09:38:21.458Z,12.49
2019-05-09T09:40:51.638Z,12.65
2019-05-09T09:43:21.947Z,12.70
2019-05-09T09:46:06.321Z,12.61
2019-05-09T09:48:24.084Z,12.70
2019-05-09T09:50:54.437Z,13.02
2019-05-09T09:53:24.657Z,13.02
2019-05-09T09:55:54.576Z,13.11
2019-05-09T09:58:24.562Z,13.18
2019-05-09T10:00:54.198Z,13.01
2019-05-09T10:03:25.144Z,13.11
2019-05-09T10:05:55.043Z,13.05
2019-05-09T10:08:25.674Z,13.20
2019-05-09T10:10:58.684Z,13.30
2019-05-09T10:13:28.626Z,13.24
2019-05-09T10:16:01.859Z,13.32
2019-05-09T10:18:33.952Z,13.51
2019-05-09T10:21:19.873Z,13.39
2019-05-09T10:23:50.003Z,13.15
2019-05-09T10:26:20.271Z,13.93
2019-05-09T10:28:50.400Z,13.53
2019-05-09T10:31:20.649Z,13.92
2019-05-09T10:33:51.058Z,13.74
2019-05-09T10:36:22.061Z,13.89
2019-05-09T10:38:52.987Z,13.79
2019-05-09T10:41:23.832Z,14.10
2019-05-09T10:44:08.350Z,14.32
2019-05-09T10:46:56.464Z,14.45
2019-05-09T10:49:17.784Z,14.30
2019-05-09T10:51:48.549Z,14.30
2019-05-09T10:54:19.055Z,14.48
2019-05-09T10:56:49.210Z,14.65
2019-05-09T10:59:19.182Z,14.83
2019-05-09T11:01:49.827Z,14.89
2019-05-09T11:04:20.312Z,14.82
2019-05-09T11:06:50.504Z,14.65
2019-05-09T11:09:20.738Z,14.96
2019-05-09T11:11:51.140Z,14.97
2019-05-09T11:14:32.731Z,14.94
2019-05-09T11:17:06.725Z,14.61
2019-05-09T11:19:24.467Z,14.77
2019-05-09T11:21:54.700Z,14.41
2019-05-09T11:24:40.594Z,14.48
2019-05-09T11:26:58.816Z,14.69
2019-05-09T11:29:28.712Z,14.77
2019-05-09T11:31:58.979Z,14.74
2019-05-09T11:34:29.278Z,14.97
2019-05-09T11:36:59.554Z,14.88
2019-05-09T11:39:36.499Z,14.86
2019-05-09T11:42:02.293Z,15.24
2019-05-09T11:44:32.642Z,15.37
2019-05-09T11:47:03.606Z,15.29
2019-05-09T11:49:34.737Z,15.22
2019-05-09T11:52:04.971Z,15.54
2019-05-09T11:54:35.132Z,15.88
2019-05-09T11:57:07.499Z,16.00
2019-05-09T11:59:37.964Z,15.88
2019-05-09T12:02:08.907Z,16.04
2019-05-09T12:04:39.607Z,15.51
2019-05-09T12:07:09.789Z,15.10
2019-05-09T12:09:40.167Z,14.68
2019-05-09T12:12:10.560Z,14.56
2019-05-09T12:14:40.730Z,14.81
2019-05-09T12:17:10.802Z,14.35
2019-05-09T12:19:40.967Z,13.94
2019-05-09T12:22:11.448Z,14.17
2019-05-09T12:24:41.806Z,14.12
2019-05-09T12:27:12.275Z,14.30
2019-05-09T12:29:42.395Z,14.24
2019-05-09T12:32:12.771Z,14.33
2019-05-09T12:34:43.133Z,14.08
2019-05-09T12:37:13.382Z,14.75
2019-05-09T12:39:44.471Z,15.00
2019-05-09T12:42:14.901Z,15.12
2019-05-09T12:44:45.096Z,15.34
2019-05-09T12:47:15.274Z,15.31
2019-05-09T12:49:45.643Z,15.23
2019-05-09T12:52:18.373Z,15.48
2019-05-09T12:54:48.425Z,15.43
2019-05-09T12:57:19.401Z,16.18
2019-05-09T12:59:52.967Z,16.36
2019-05-09T13:02:20.800Z,15.80
2019-05-09T13:04:51.127Z,15.75
2019-05-09T13:07:21.453Z,16.07
2019-05-09T13:09:52.656Z,15.65
2019-05-09T13:12:23.766Z,15.97
2019-05-09T13:14:54.007Z,15.69
2019-05-09T13:17:24.437Z,15.81
2019-05-09T13:19:54.631Z,15.52
2019-05-09T13:22:24.765Z,15.89
2019-05-09T13:24:55.178Z,16.28
2019-05-09T13:27:25.502Z,16.40
2019-05-09T13:29:56.259Z,16.43
2019-05-09T13:32:28.033Z,16.79
2019-05-09T13:34:58.558Z,16.25
2019-05-09T13:37:29.600Z,16.78
2019-05-09T13:40:00.019Z,17.02
2019-05-09T13:42:30.767Z,16.31
2019-05-09T13:45:01.040Z,16.96
2019-05-09T13:47:31.342Z,17.50
2019-05-09T13:50:01.895Z,17.38
2019-05-09T13:52:32.016Z,17.45
2019-05-09T13:55:02.507Z,16.69
2019-05-09T13:57:32.752Z,16.72
2019-05-09T14:00:02.965Z,17.28
2019-05-09T14:02:33.483Z,17.06
2019-05-09T14:05:04.000Z,17.80
2019-05-09T14:07:34.358Z,17.89
2019-05-09T14:10:10.435Z,18.24
2019-05-09T14:12:40.582Z,18.86
2019-05-09T14:15:10.955Z,17.82
2019-05-09T14:17:49.551Z,17.83
2019-05-09T14:20:14.327Z,17.69
2019-05-09T14:22:44.688Z,17.31
2019-05-09T14:25:19.532Z,17.20
2019-05-09T14:27:52.258Z,17.29
2019-05-09T14:30:21.456Z,17.28
2019-05-09T14:32:52.264Z,16.72
2019-05-09T14:35:22.560Z,17.50
2019-05-09T14:37:52.758Z,18.56
2019-05-09T14:40:23.063Z,19.09
2019-05-09T14:42:53.391Z,19.18
2019-05-09T14:45:23.840Z,18.66
2019-05-09T14:47:54.091Z,18.94
2019-05-09T14:50:24.350Z,19.36
2019-05-09T14:52:54.756Z,19.86
2019-05-09T14:55:25.055Z,20.20
2019-05-09T14:57:57.682Z,20.00
2019-05-09T15:00:26.498Z,19.85
2019-05-09T15:02:57.877Z,19.68
2019-05-09T15:05:28.024Z,20.16
2019-05-09T15:07:59.221Z,20.70
2019-05-09T15:10:30.073Z,21.30
2019-05-09T15:13:00.377Z,22.12
2019-05-09T15:15:32.761Z,21.54
2019-05-09T15:18:01.910Z,20.45
2019-05-09T15:20:32.761Z,21.13
2019-05-09T15:23:03.274Z,21.28
2019-05-09T15:25:33.659Z,20.03
2019-05-09T15:28:04.123Z,19.74
2019-05-09T15:30:34.297Z,19.70
2019-05-09T15:33:04.781Z,19.58
2019-05-09T15:35:35.064Z,18.97
2019-05-09T15:38:05.414Z,18.47
2019-05-09T15:40:38.499Z,17.92
2019-05-09T15:43:08.292Z,16.92
2019-05-09T15:45:41.017Z,16.69
2019-05-09T15:48:11.215Z,16.16
2019-05-09T15:50:41.689Z,15.40
2019-05-09T15:53:11.889Z,15.13
2019-05-09T15:55:42.362Z,14.37
2019-05-09T15:58:12.737Z,14.07
2019-05-09T16:00:43.039Z,13.78
2019-05-09T16:03:13.286Z,13.45
2019-05-09T16:05:43.553Z,13.49
2019-05-09T16:08:14.481Z,13.44
2019-05-09T16:10:45.645Z,13.11
2019-05-09T16:13:17.770Z,13.05
2019-05-09T16:15:48.905Z,13.03
2019-05-09T16:18:19.208Z,13.46
2019-05-09T16:20:49.709Z,13.65
2019-05-09T16:23:19.952Z,13.64
2019-05-09T16:25:50.573Z,13.61
2019-05-09T16:28:20.704Z,14.16
2019-05-09T16:30:51.089Z,14.82
2019-05-09T16:33:21.341Z,14.76
2019-05-09T16:35:52.856Z,14.60
2019-05-09T16:38:23.342Z,14.44
2019-05-09T16:40:53.691Z,14.42
2019-05-09T16:43:24.032Z,14.68
2019-05-09T16:45:54.561Z,14.67
2019-05-09T16:48:24.855Z,14.77
2019-05-09T16:51:03.204Z,14.67
2019-05-09T16:53:27.818Z,14.86
2019-05-09T16:55:59.343Z,14.78
2019-05-09T16:58:29.550Z,14.34
2019-05-09T17:01:00.270Z,14.55
2019-05-09T17:03:30.718Z,14.61
2019-05-09T17:06:00.826Z,14.69
2019-05-09T17:08:31.247Z,14.72
2019-05-09T17:11:01.494Z,14.63
2019-05-09T17:13:31.847Z,14.70
2019-05-09T17:16:02.179Z,14.58
2019-05-09T17:18:32.505Z,14.82
2019-05-09T17:21:24.189Z,14.68
2019-05-09T17:23:53.294Z,14.47
2019-05-09T17:26:23.531Z,14.32
2019-05-09T17:28:53.769Z,14.06
2019-05-09T17:31:24.055Z,14.05
2019-05-09T17:33:54.512Z,13.98
2019-05-09T17:36:25.199Z,13.92
2019-05-09T17:38:55.326Z,14.13
2019-05-09T17:41:25.799Z,14.00
2019-05-09T17:43:58.078Z,13.95
2019-05-09T17:46:27.960Z,14.05
2019-05-09T17:48:58.474Z,13.99
2019-05-09T17:51:33.937Z,13.58
2019-05-09T17:54:00.729Z,13.64
2019-05-09T17:56:31.192Z,13.60
2019-05-09T17:59:01.244Z,13.63
2019-05-09T18:01:31.515Z,13.62
2019-05-09T18:04:01.821Z,13.61
2019-05-09T18:06:32.255Z,13.60
2019-05-09T18:09:02.766Z,13.52
2019-05-09T18:11:33.022Z,13.34
2019-05-09T18:14:03.334Z,13.40
2019-05-09T18:16:33.931Z,13.39
2019-05-09T18:19:04.597Z,13.11
2019-05-09T18:21:48.008Z,13.24
2019-05-09T18:24:08.863Z,13.14
2019-05-09T18:26:39.289Z,13.24
2019-05-09T18:29:09.639Z,13.17
2019-05-09T18:31:41.457Z,13.29
2019-05-09T18:34:11.744Z,13.17
2019-05-09T18:36:41.863Z,13.32
2019-05-09T18:39:12.310Z,13.27
2019-05-09T18:41:42.408Z,13.39
2019-05-09T18:44:12.746Z,13.31
2019-05-09T18:46:43.111Z,13.29
2019-05-09T18:49:14.846Z,13.29
2019-05-09T18:51:44.977Z,13.25
2019-05-09T18:54:15.231Z,13.24
2019-05-09T18:56:45.504Z,13.19
2019-05-09T18:59:15.873Z,13.27
2019-05-09T19:01:46.170Z,13.17
2019-05-09T19:04:16.734Z,13.14
2019-05-09T19:06:47.098Z,13.15
2019-05-09T19:09:17.127Z,13.18
2019-05-09T19:11:47.537Z,13.19
2019-05-09T19:14:19.294Z,13.09
2019-05-09T19:17:07.038Z,13.04
2019-05-09T19:19:41.695Z,13.02
2019-05-09T19:22:21.945Z,12.80
2019-05-09T19:24:43.025Z,12.81
2019-05-09T19:27:12.993Z,12.68
2019-05-09T19:29:42.991Z,12.80
2019-05-09T19:32:12.666Z,12.57
2019-05-09T19:34:42.478Z,12.58
2019-05-09T19:37:12.289Z,12.53
2019-05-09T19:39:41.888Z,12.42
2019-05-09T19:42:11.685Z,12.43
2019-05-09T19:44:41.459Z,12.35
2019-05-09T19:47:11.249Z,12.35
2019-05-09T19:49:40.997Z,12.40
2019-05-09T19:52:10.704Z,12.32
2019-05-09T19:54:40.354Z,12.31
2019-05-09T19:57:09.978Z,12.36
2019-05-09T19:59:39.551Z,12.30
2019-05-09T20:02:09.324Z,12.30
2019-05-09T20:04:38.875Z,12.32
2019-05-09T20:07:08.613Z,12.48
2019-05-09T20:09:51.841Z,12.40
2019-05-09T20:12:31.981Z,12.39
2019-05-09T20:15:01.707Z,12.33
2019-05-09T20:17:31.317Z,12.19
2019-05-09T20:20:00.911Z,12.19
2019-05-09T20:22:30.574Z,12.30
2019-05-09T20:25:00.259Z,12.24
2019-05-09T20:27:29.940Z,12.25
2019-05-09T20:29:59.558Z,12.15
2019-05-09T20:32:29.195Z,12.30
2019-05-09T20:34:59.070Z,12.18
2019-05-09T20:37:28.857Z,12.22
2019-05-09T20:39:58.796Z,12.20
2019-05-09T20:42:28.634Z,12.24
2019-05-09T20:44:58.627Z,12.12
2019-05-09T20:47:28.508Z,11.96
2019-05-09T20:49:58.412Z,12.11
2019-05-09T20:52:28.389Z,12.22
2019-05-09T20:54:58.142Z,12.09
2019-05-09T20:57:27.973Z,12.17
2019-05-09T20:59:57.752Z,12.16
2019-05-09T21:02:27.778Z,12.21
2019-05-09T21:04:57.706Z,12.11
2019-05-09T21:07:27.522Z,12.07
2019-05-09T21:09:57.388Z,12.03
2019-05-09T21:12:27.266Z,12.02
2019-05-09T21:14:57.120Z,11.98
2019-05-09T21:17:26.480Z,11.95
2019-05-09T21:19:56.287Z,11.76
2019-05-09T21:22:26.161Z,11.78
2019-05-09T21:24:56.005Z,11.72
2019-05-09T21:27:25.871Z,11.77
2019-05-09T21:29:55.657Z,11.63
2019-05-09T21:32:25.521Z,11.65
2019-05-09T21:34:55.162Z,11.69
2019-05-09T21:37:24.906Z,11.67
2019-05-09T21:39:54.572Z,11.71
2019-05-09T21:42:24.174Z,11.77
2019-05-09T21:44:53.796Z,11.57
2019-05-09T21:47:23.485Z,11.33
2019-05-09T21:49:53.194Z,11.51
2019-05-09T21:52:22.757Z,11.65
2019-05-09T21:54:52.324Z,11.66
2019-05-09T21:57:22.132Z,11.71
2019-05-09T21:59:51.883Z,11.77
2019-05-09T22:02:21.713Z,11.58
2019-05-09T22:04:51.580Z,11.65
2019-05-09T22:07:21.241Z,11.64
2019-05-09T22:09:50.944Z,11.53
2019-05-09T22:12:20.623Z,11.53
2019-05-09T22:14:50.280Z,11.58
2019-05-09T22:17:21.602Z,11.71
2019-05-09T22:19:51.383Z,11.62
2019-05-09T22:22:21.045Z,11.41
2019-05-09T22:24:50.695Z,11.44
2019-05-09T22:27:20.326Z,11.47
2019-05-09T22:29:49.944Z,11.37
2019-05-09T22:32:22.163Z,11.46
2019-05-09T22:34:50.910Z,11.48
2019-05-09T22:37:20.641Z,11.43
2019-05-09T22:39:50.295Z,11.33
2019-05-09T22:42:20.031Z,11.30
2019-05-09T22:44:49.713Z,11.37
2019-05-09T22:47:19.567Z,11.39
2019-05-09T22:49:52.499Z,11.42
2019-05-09T22:52:20.650Z,11.44
2019-05-09T22:54:50.338Z,11.44
2019-05-09T22:57:23.010Z,11.31
2019-05-09T22:59:52.674Z,11.30
2019-05-09T23:02:22.398Z,11.21
2019-05-09T23:04:52.145Z,11.24
2019-05-09T23:07:21.813Z,11.20
2019-05-09T23:09:51.520Z,11.22
2019-05-09T23:12:21.194Z,11.25
2019-05-09T23:14:50.898Z,11.29
2019-05-09T23:17:22.021Z,11.20
2019-05-09T23:19:51.703Z,11.04
2019-05-09T23:22:23.161Z,11.02
2019-05-09T23:24:52.825Z,11.05
2019-05-09T23:27:22.460Z,10.92
2019-05-09T23:29:52.165Z,10.95
2019-05-09T23:32:38.037Z,10.84
2019-05-09T23:35:07.998Z,10.92
2019-05-09T23:37:37.731Z,10.93
2019-05-09T23:40:08.259Z,10.85
2019-05-09T23:42:39.628Z,10.84
2019-05-09T23:45:09.873Z,10.93
2019-05-09T23:47:39.426Z,10.68
2019-05-09T23:50:09.257Z,10.74
2019-05-09T23:52:38.820Z,10.74
2019-05-09T23:55:25.904Z,10.72
2019-05-09T23:58:12.725Z,10.69
